sensor_id;sensor_type;location;lat;lon;timestamp;P1;durP1;ratioP1;P2;durP2;ratioP2
76733;SDS011;65660;53.288;14.666;2023-04-03T00:02:16;6.40;;;2.77;;
76733;SDS011;65660;53.288;14.666;2023-04-03T00:07:17;6.73;;;3.13;;
76733;SDS011;65660;53.288;14.666;2023-04-03T00:12:18;4.17;;;2.93;;
76733;SDS011;65660;53.288;14.666;2023-04-03T00:17:19;5.63;;;2.53;;
76733;SDS011;65660;53.288;14.666;2023-04-03T00:22:20;6.40;;;2.90;;
76733;SDS011;65660;53.288;14.666;2023-04-03T00:27:20;4.03;;;2.60;;
76733;SDS011;65660;53.288;14.666;2023-04-03T00:32:22;8.43;;;2.93;;
76733;SDS011;65660;53.288;14.666;2023-04-03T00:37:23;5.33;;;2.60;;
76733;SDS011;65660;53.288;14.666;2023-04-03T00:42:24;4.03;;;2.60;;
76733;SDS011;65660;53.288;14.666;2023-04-03T00:47:25;4.57;;;2.60;;
76733;SDS011;65660;53.288;14.666;2023-04-03T00:52:27;5.23;;;3.40;;
76733;SDS011;65660;53.288;14.666;2023-04-03T00:57:30;4.73;;;2.43;;
76733;SDS011;65660;53.288;14.666;2023-04-03T01:02:31;6.47;;;3.40;;
76733;SDS011;65660;53.288;14.666;2023-04-03T01:07:33;4.33;;;3.43;;
76733;SDS011;65660;53.288;14.666;2023-04-03T01:12:35;4.47;;;2.30;;
76733;SDS011;65660;53.288;14.666;2023-04-03T01:17:47;5.50;;;2.27;;
76733;SDS011;65660;53.288;14.666;2023-04-03T01:28:15;7.50;;;3.27;;
76733;SDS011;65660;53.288;14.666;2023-04-03T01:33:20;4.40;;;2.40;;
76733;SDS011;65660;53.288;14.666;2023-04-03T01:38:21;4.77;;;2.70;;
76733;SDS011;65660;53.288;14.666;2023-04-03T01:43:22;5.23;;;3.03;;
76733;SDS011;65660;53.288;14.666;2023-04-03T01:48:23;4.30;;;3.27;;
76733;SDS011;65660;53.288;14.666;2023-04-03T01:53:24;4.43;;;2.80;;
76733;SDS011;65660;53.288;14.666;2023-04-03T01:58:24;4.53;;;2.60;;
76733;SDS011;65660;53.288;14.666;2023-04-03T02:03:25;5.90;;;4.90;;
76733;SDS011;65660;53.288;14.666;2023-04-03T02:08:27;7.57;;;6.47;;
76733;SDS011;65660;53.288;14.666;2023-04-03T02:13:28;4.73;;;3.00;;
76733;SDS011;65660;53.288;14.666;2023-04-03T02:18:28;3.90;;;2.80;;
76733;SDS011;65660;53.288;14.666;2023-04-03T02:23:29;3.43;;;2.13;;
76733;SDS011;65660;53.288;14.666;2023-04-03T02:28:30;3.73;;;2.13;;
76733;SDS011;65660;53.288;14.666;2023-04-03T02:33:31;4.60;;;3.10;;
76733;SDS011;65660;53.288;14.666;2023-04-03T02:38:32;3.80;;;2.40;;
76733;SDS011;65660;53.288;14.666;2023-04-03T02:43:33;5.27;;;2.40;;
76733;SDS011;65660;53.288;14.666;2023-04-03T02:48:34;4.33;;;2.80;;
76733;SDS011;65660;53.288;14.666;2023-04-03T02:53:36;4.77;;;3.60;;
76733;SDS011;65660;53.288;14.666;2023-04-03T02:58:38;6.87;;;2.70;;
76733;SDS011;65660;53.288;14.666;2023-04-03T03:03:39;8.37;;;2.53;;
76733;SDS011;65660;53.288;14.666;2023-04-03T03:08:40;3.67;;;2.50;;
76733;SDS011;65660;53.288;14.666;2023-04-03T03:13:41;4.17;;;2.40;;
76733;SDS011;65660;53.288;14.666;2023-04-03T03:18:42;4.23;;;2.47;;
76733;SDS011;65660;53.288;14.666;2023-04-03T03:23:43;9.13;;;2.60;;
76733;SDS011;65660;53.288;14.666;2023-04-03T03:28:44;4.87;;;2.40;;
76733;SDS011;65660;53.288;14.666;2023-04-03T03:33:45;5.30;;;2.60;;
76733;SDS011;65660;53.288;14.666;2023-04-03T03:38:46;4.80;;;2.73;;
76733;SDS011;65660;53.288;14.666;2023-04-03T03:43:47;3.40;;;2.50;;
76733;SDS011;65660;53.288;14.666;2023-04-03T03:48:48;3.97;;;2.40;;
76733;SDS011;65660;53.288;14.666;2023-04-03T03:53:48;2.90;;;2.30;;
76733;SDS011;65660;53.288;14.666;2023-04-03T03:58:49;4.27;;;2.50;;
76733;SDS011;65660;53.288;14.666;2023-04-03T04:03:50;3.87;;;2.20;;
76733;SDS011;65660;53.288;14.666;2023-04-03T04:08:50;4.77;;;2.30;;
76733;SDS011;65660;53.288;14.666;2023-04-03T04:13:51;5.17;;;3.73;;
76733;SDS011;65660;53.288;14.666;2023-04-03T04:18:52;3.53;;;2.30;;
76733;SDS011;65660;53.288;14.666;2023-04-03T04:23:53;5.37;;;2.50;;
76733;SDS011;65660;53.288;14.666;2023-04-03T04:28:53;4.17;;;2.20;;
76733;SDS011;65660;53.288;14.666;2023-04-03T04:33:54;8.07;;;2.40;;
76733;SDS011;65660;53.288;14.666;2023-04-03T04:38:55;4.17;;;2.87;;
76733;SDS011;65660;53.288;14.666;2023-04-03T04:43:56;3.83;;;2.60;;
76733;SDS011;65660;53.288;14.666;2023-04-03T04:48:57;4.40;;;2.97;;
76733;SDS011;65660;53.288;14.666;2023-04-03T04:53:58;6.43;;;3.00;;
76733;SDS011;65660;53.288;14.666;2023-04-03T04:59:00;4.27;;;3.00;;
76733;SDS011;65660;53.288;14.666;2023-04-03T05:04:01;3.73;;;2.50;;
76733;SDS011;65660;53.288;14.666;2023-04-03T05:09:02;4.10;;;2.23;;
76733;SDS011;65660;53.288;14.666;2023-04-03T05:14:03;3.00;;;2.20;;
76733;SDS011;65660;53.288;14.666;2023-04-03T05:19:04;7.50;;;2.50;;
76733;SDS011;65660;53.288;14.666;2023-04-03T05:24:05;4.77;;;2.50;;
76733;SDS011;65660;53.288;14.666;2023-04-03T05:29:06;4.10;;;3.80;;
76733;SDS011;65660;53.288;14.666;2023-04-03T05:34:07;3.07;;;2.57;;
76733;SDS011;65660;53.288;14.666;2023-04-03T05:39:07;5.37;;;3.70;;
76733;SDS011;65660;53.288;14.666;2023-04-03T05:44:08;4.33;;;2.70;;
76733;SDS011;65660;53.288;14.666;2023-04-03T05:49:09;3.53;;;2.80;;
76733;SDS011;65660;53.288;14.666;2023-04-03T05:54:17;3.97;;;2.60;;
76733;SDS011;65660;53.288;14.666;2023-04-03T05:59:20;4.43;;;2.50;;
76733;SDS011;65660;53.288;14.666;2023-04-03T06:04:21;4.57;;;2.70;;
76733;SDS011;65660;53.288;14.666;2023-04-03T06:09:22;6.93;;;2.50;;
76733;SDS011;65660;53.288;14.666;2023-04-03T06:14:26;4.10;;;2.63;;
76733;SDS011;65660;53.288;14.666;2023-04-03T06:19:27;3.27;;;2.83;;
76733;SDS011;65660;53.288;14.666;2023-04-03T06:24:28;3.13;;;2.83;;
76733;SDS011;65660;53.288;14.666;2023-04-03T06:29:29;6.00;;;2.70;;
76733;SDS011;65660;53.288;14.666;2023-04-03T06:34:31;3.90;;;2.60;;
76733;SDS011;65660;53.288;14.666;2023-04-03T06:39:31;6.27;;;3.07;;
76733;SDS011;65660;53.288;14.666;2023-04-03T06:44:32;3.57;;;3.07;;
76733;SDS011;65660;53.288;14.666;2023-04-03T06:49:33;3.97;;;3.03;;
76733;SDS011;65660;53.288;14.666;2023-04-03T06:54:35;3.37;;;2.90;;
76733;SDS011;65660;53.288;14.666;2023-04-03T06:59:36;5.80;;;2.90;;
76733;SDS011;65660;53.288;14.666;2023-04-03T07:04:37;4.23;;;3.00;;
76733;SDS011;65660;53.288;14.666;2023-04-03T07:09:38;4.40;;;3.17;;
76733;SDS011;65660;53.288;14.666;2023-04-03T07:14:39;5.77;;;3.60;;
76733;SDS011;65660;53.288;14.666;2023-04-03T07:19:40;4.03;;;2.87;;
76733;SDS011;65660;53.288;14.666;2023-04-03T07:24:41;4.57;;;3.30;;
76733;SDS011;65660;53.288;14.666;2023-04-03T07:29:43;3.20;;;2.90;;
76733;SDS011;65660;53.288;14.666;2023-04-03T07:34:44;5.07;;;2.70;;
76733;SDS011;65660;53.288;14.666;2023-04-03T07:39:45;2.83;;;2.60;;
76733;SDS011;65660;53.288;14.666;2023-04-03T07:44:45;4.33;;;2.80;;
76733;SDS011;65660;53.288;14.666;2023-04-03T07:49:46;4.27;;;2.67;;
76733;SDS011;65660;53.288;14.666;2023-04-03T07:54:48;4.00;;;3.10;;
76733;SDS011;65660;53.288;14.666;2023-04-03T07:59:49;3.50;;;2.60;;
76733;SDS011;65660;53.288;14.666;2023-04-03T08:04:49;3.47;;;3.17;;
76733;SDS011;65660;53.288;14.666;2023-04-03T08:09:50;4.00;;;3.43;;
76733;SDS011;65660;53.288;14.666;2023-04-03T08:14:52;3.50;;;3.20;;
76733;SDS011;65660;53.288;14.666;2023-04-03T08:19:53;4.67;;;3.10;;
76733;SDS011;65660;53.288;14.666;2023-04-03T08:24:53;3.83;;;3.40;;
76733;SDS011;65660;53.288;14.666;2023-04-03T08:29:55;3.50;;;3.07;;
76733;SDS011;65660;53.288;14.666;2023-04-03T08:34:56;6.57;;;3.30;;
76733;SDS011;65660;53.288;14.666;2023-04-03T08:39:57;4.80;;;3.07;;
76733;SDS011;65660;53.288;14.666;2023-04-03T08:45:02;4.07;;;3.30;;
76733;SDS011;65660;53.288;14.666;2023-04-03T08:50:11;5.27;;;3.00;;
76733;SDS011;65660;53.288;14.666;2023-04-03T09:00:19;3.77;;;3.20;;
76733;SDS011;65660;53.288;14.666;2023-04-03T09:10:44;4.63;;;3.07;;
76733;SDS011;65660;53.288;14.666;2023-04-03T09:15:45;3.00;;;2.70;;
76733;SDS011;65660;53.288;14.666;2023-04-03T09:25:56;5.97;;;3.30;;
76733;SDS011;65660;53.288;14.666;2023-04-03T09:31:05;2.60;;;2.40;;
76733;SDS011;65660;53.288;14.666;2023-04-03T09:47:27;3.93;;;3.20;;
76733;SDS011;65660;53.288;14.666;2023-04-03T09:52:35;3.37;;;3.07;;
76733;SDS011;65660;53.288;14.666;2023-04-03T09:57:37;3.30;;;3.00;;
76733;SDS011;65660;53.288;14.666;2023-04-03T10:02:39;3.60;;;2.50;;
76733;SDS011;65660;53.288;14.666;2023-04-03T10:07:40;3.07;;;2.50;;
76733;SDS011;65660;53.288;14.666;2023-04-03T10:12:41;3.27;;;2.50;;
76733;SDS011;65660;53.288;14.666;2023-04-03T10:17:57;2.93;;;2.70;;
76733;SDS011;65660;53.288;14.666;2023-04-03T10:28:30;4.47;;;2.80;;
76733;SDS011;65660;53.288;14.666;2023-04-03T10:44:09;3.63;;;2.60;;
76733;SDS011;65660;53.288;14.666;2023-04-03T10:49:19;4.73;;;3.00;;
76733;SDS011;65660;53.288;14.666;2023-04-03T10:54:57;5.77;;;3.07;;
76733;SDS011;65660;53.288;14.666;2023-04-03T11:00:04;2.57;;;2.37;;
76733;SDS011;65660;53.288;14.666;2023-04-03T11:15:43;4.23;;;2.73;;
76733;SDS011;65660;53.288;14.666;2023-04-03T11:20:49;3.60;;;2.80;;
76733;SDS011;65660;53.288;14.666;2023-04-03T11:25:58;5.13;;;2.80;;
76733;SDS011;65660;53.288;14.666;2023-04-03T11:36:23;6.23;;;2.90;;
76733;SDS011;65660;53.288;14.666;2023-04-03T11:41:27;3.97;;;2.70;;
76733;SDS011;65660;53.288;14.666;2023-04-03T11:51:51;4.60;;;3.00;;
76733;SDS011;65660;53.288;14.666;2023-04-03T11:56:52;3.13;;;2.47;;
76733;SDS011;65660;53.288;14.666;2023-04-03T12:01:54;3.40;;;3.00;;
76733;SDS011;65660;53.288;14.666;2023-04-03T12:07:11;3.70;;;2.77;;
76733;SDS011;65660;53.288;14.666;2023-04-03T12:12:47;5.33;;;3.70;;
76733;SDS011;65660;53.288;14.666;2023-04-03T12:17:41;4.47;;;3.40;;
76733;SDS011;65660;53.288;14.666;2023-04-03T12:22:56;5.57;;;4.30;;
76733;SDS011;65660;53.288;14.666;2023-04-03T12:28:22;5.53;;;4.00;;
76733;SDS011;65660;53.288;14.666;2023-04-03T12:38:41;5.30;;;4.80;;
76733;SDS011;65660;53.288;14.666;2023-04-03T12:48:58;4.37;;;3.10;;
76733;SDS011;65660;53.288;14.666;2023-04-03T12:54:41;4.70;;;3.27;;
76733;SDS011;65660;53.288;14.666;2023-04-03T12:59:27;4.63;;;3.60;;
76733;SDS011;65660;53.288;14.666;2023-04-03T13:04:28;5.03;;;4.63;;
76733;SDS011;65660;53.288;14.666;2023-04-03T13:09:30;3.33;;;3.10;;
76733;SDS011;65660;53.288;14.666;2023-04-03T13:14:31;3.40;;;3.10;;
76733;SDS011;65660;53.288;14.666;2023-04-03T13:19:32;3.50;;;3.20;;
76733;SDS011;65660;53.288;14.666;2023-04-03T13:24:33;5.20;;;3.50;;
76733;SDS011;65660;53.288;14.666;2023-04-03T13:29:37;3.40;;;3.20;;
76733;SDS011;65660;53.288;14.666;2023-04-03T13:34:42;4.80;;;4.40;;
76733;SDS011;65660;53.288;14.666;2023-04-03T13:39:44;6.67;;;5.07;;
76733;SDS011;65660;53.288;14.666;2023-04-03T13:44:46;3.30;;;3.00;;
76733;SDS011;65660;53.288;14.666;2023-04-03T13:50:02;3.27;;;3.00;;
76733;SDS011;65660;53.288;14.666;2023-04-03T13:55:19;4.93;;;3.30;;
76733;SDS011;65660;53.288;14.666;2023-04-03T14:00:31;3.33;;;3.00;;
76733;SDS011;65660;53.288;14.666;2023-04-03T14:05:38;3.40;;;3.00;;
76733;SDS011;65660;53.288;14.666;2023-04-03T14:10:39;3.83;;;3.30;;
76733;SDS011;65660;53.288;14.666;2023-04-03T14:15:40;3.23;;;2.93;;
76733;SDS011;65660;53.288;14.666;2023-04-03T14:20:42;3.27;;;2.97;;
76733;SDS011;65660;53.288;14.666;2023-04-03T14:25:43;3.50;;;3.10;;
76733;SDS011;65660;53.288;14.666;2023-04-03T14:30:45;4.30;;;3.10;;
76733;SDS011;65660;53.288;14.666;2023-04-03T14:35:47;3.33;;;3.13;;
76733;SDS011;65660;53.288;14.666;2023-04-03T14:40:49;3.90;;;3.60;;
76733;SDS011;65660;53.288;14.666;2023-04-03T14:45:50;3.60;;;3.30;;
76733;SDS011;65660;53.288;14.666;2023-04-03T14:50:51;5.43;;;3.57;;
76733;SDS011;65660;53.288;14.666;2023-04-03T14:55:53;4.67;;;3.43;;
76733;SDS011;65660;53.288;14.666;2023-04-03T15:00:54;4.77;;;4.40;;
76733;SDS011;65660;53.288;14.666;2023-04-03T15:05:55;4.37;;;2.97;;
76733;SDS011;65660;53.288;14.666;2023-04-03T15:10:56;6.07;;;3.30;;
76733;SDS011;65660;53.288;14.666;2023-04-03T15:15:58;5.63;;;3.53;;
76733;SDS011;65660;53.288;14.666;2023-04-03T15:20:59;4.70;;;3.53;;
76733;SDS011;65660;53.288;14.666;2023-04-03T15:26:01;3.93;;;3.43;;
76733;SDS011;65660;53.288;14.666;2023-04-03T15:31:03;6.50;;;3.80;;
76733;SDS011;65660;53.288;14.666;2023-04-03T15:36:05;4.47;;;3.87;;
76733;SDS011;65660;53.288;14.666;2023-04-03T15:41:06;4.57;;;3.77;;
76733;SDS011;65660;53.288;14.666;2023-04-03T15:46:08;5.47;;;3.87;;
76733;SDS011;65660;53.288;14.666;2023-04-03T15:51:10;5.07;;;4.60;;
76733;SDS011;65660;53.288;14.666;2023-04-03T15:56:11;3.80;;;3.43;;
76733;SDS011;65660;53.288;14.666;2023-04-03T16:01:12;3.30;;;3.00;;
76733;SDS011;65660;53.288;14.666;2023-04-03T16:06:14;5.43;;;4.50;;
76733;SDS011;65660;53.288;14.666;2023-04-03T16:11:16;4.20;;;3.80;;
76733;SDS011;65660;53.288;14.666;2023-04-03T16:16:17;6.33;;;3.80;;
76733;SDS011;65660;53.288;14.666;2023-04-03T16:21:19;5.97;;;5.00;;
76733;SDS011;65660;53.288;14.666;2023-04-03T16:26:20;4.90;;;4.30;;
76733;SDS011;65660;53.288;14.666;2023-04-03T16:31:21;4.30;;;3.90;;
76733;SDS011;65660;53.288;14.666;2023-04-03T16:36:24;5.50;;;4.20;;
76733;SDS011;65660;53.288;14.666;2023-04-03T16:41:26;4.77;;;4.30;;
76733;SDS011;65660;53.288;14.666;2023-04-03T16:46:27;4.27;;;3.83;;
76733;SDS011;65660;53.288;14.666;2023-04-03T16:51:28;5.23;;;4.60;;
76733;SDS011;65660;53.288;14.666;2023-04-03T16:56:29;6.13;;;5.23;;
76733;SDS011;65660;53.288;14.666;2023-04-03T17:01:30;6.57;;;4.10;;
76733;SDS011;65660;53.288;14.666;2023-04-03T17:06:32;5.83;;;4.00;;
76733;SDS011;65660;53.288;14.666;2023-04-03T17:11:33;6.70;;;6.10;;
76733;SDS011;65660;53.288;14.666;2023-04-03T17:16:35;4.83;;;4.43;;
76733;SDS011;65660;53.288;14.666;2023-04-03T17:21:36;5.10;;;4.10;;
76733;SDS011;65660;53.288;14.666;2023-04-03T17:26:39;4.97;;;4.60;;
76733;SDS011;65660;53.288;14.666;2023-04-03T17:31:40;5.03;;;4.30;;
76733;SDS011;65660;53.288;14.666;2023-04-03T17:36:41;4.90;;;4.20;;
76733;SDS011;65660;53.288;14.666;2023-04-03T17:41:43;5.53;;;4.10;;
76733;SDS011;65660;53.288;14.666;2023-04-03T17:46:44;5.10;;;3.93;;
76733;SDS011;65660;53.288;14.666;2023-04-03T17:51:45;5.97;;;3.57;;
76733;SDS011;65660;53.288;14.666;2023-04-03T17:56:46;4.47;;;3.63;;
76733;SDS011;65660;53.288;14.666;2023-04-03T18:01:47;3.83;;;3.17;;
76733;SDS011;65660;53.288;14.666;2023-04-03T18:06:49;3.67;;;2.90;;
76733;SDS011;65660;53.288;14.666;2023-04-03T18:11:52;5.60;;;3.23;;
76733;SDS011;65660;53.288;14.666;2023-04-03T18:16:53;3.57;;;3.03;;
76733;SDS011;65660;53.288;14.666;2023-04-03T18:21:55;4.20;;;3.80;;
76733;SDS011;65660;53.288;14.666;2023-04-03T18:26:59;5.90;;;4.00;;
76733;SDS011;65660;53.288;14.666;2023-04-03T18:32:02;5.67;;;4.00;;
76733;SDS011;65660;53.288;14.666;2023-04-03T18:37:05;4.63;;;3.83;;
76733;SDS011;65660;53.288;14.666;2023-04-03T18:42:10;5.67;;;3.97;;
76733;SDS011;65660;53.288;14.666;2023-04-03T18:47:13;4.77;;;4.27;;
76733;SDS011;65660;53.288;14.666;2023-04-03T18:52:14;6.53;;;4.27;;
76733;SDS011;65660;53.288;14.666;2023-04-03T18:57:15;7.70;;;3.60;;
76733;SDS011;65660;53.288;14.666;2023-04-03T19:02:16;5.90;;;3.50;;
76733;SDS011;65660;53.288;14.666;2023-04-03T19:07:17;5.23;;;3.50;;
76733;SDS011;65660;53.288;14.666;2023-04-03T19:12:19;5.27;;;3.90;;
76733;SDS011;65660;53.288;14.666;2023-04-03T19:17:20;5.70;;;3.60;;
76733;SDS011;65660;53.288;14.666;2023-04-03T19:22:21;6.37;;;3.63;;
76733;SDS011;65660;53.288;14.666;2023-04-03T19:27:24;3.63;;;3.30;;
76733;SDS011;65660;53.288;14.666;2023-04-03T19:32:25;5.97;;;4.27;;
76733;SDS011;65660;53.288;14.666;2023-04-03T19:37:27;8.70;;;4.57;;
76733;SDS011;65660;53.288;14.666;2023-04-03T19:42:28;4.37;;;3.80;;
76733;SDS011;65660;53.288;14.666;2023-04-03T19:47:29;4.30;;;3.80;;
76733;SDS011;65660;53.288;14.666;2023-04-03T19:52:30;6.80;;;3.47;;
76733;SDS011;65660;53.288;14.666;2023-04-03T19:57:31;5.27;;;3.60;;
76733;SDS011;65660;53.288;14.666;2023-04-03T20:02:32;4.97;;;3.50;;
76733;SDS011;65660;53.288;14.666;2023-04-03T20:07:33;6.13;;;3.47;;
76733;SDS011;65660;53.288;14.666;2023-04-03T20:12:34;4.83;;;3.67;;
76733;SDS011;65660;53.288;14.666;2023-04-03T20:17:35;7.83;;;3.70;;
76733;SDS011;65660;53.288;14.666;2023-04-03T20:22:37;6.37;;;3.93;;
76733;SDS011;65660;53.288;14.666;2023-04-03T20:27:38;8.13;;;4.10;;
76733;SDS011;65660;53.288;14.666;2023-04-03T20:32:39;10.63;;;4.67;;
76733;SDS011;65660;53.288;14.666;2023-04-03T20:37:40;9.00;;;5.40;;
76733;SDS011;65660;53.288;14.666;2023-04-03T20:42:41;6.67;;;4.30;;
76733;SDS011;65660;53.288;14.666;2023-04-03T20:47:42;6.17;;;4.57;;
76733;SDS011;65660;53.288;14.666;2023-04-03T20:52:43;7.23;;;4.97;;
76733;SDS011;65660;53.288;14.666;2023-04-03T20:57:43;8.07;;;5.37;;
76733;SDS011;65660;53.288;14.666;2023-04-03T21:02:45;10.80;;;5.23;;
76733;SDS011;65660;53.288;14.666;2023-04-03T21:19:12;11.87;;;4.60;;
76733;SDS011;65660;53.288;14.666;2023-04-03T21:24:15;8.30;;;4.73;;
76733;SDS011;65660;53.288;14.666;2023-04-03T21:29:16;8.40;;;4.57;;
76733;SDS011;65660;53.288;14.666;2023-04-03T21:34:18;8.40;;;4.30;;
76733;SDS011;65660;53.288;14.666;2023-04-03T21:39:20;6.90;;;4.63;;
76733;SDS011;65660;53.288;14.666;2023-04-03T21:44:21;7.33;;;4.20;;
76733;SDS011;65660;53.288;14.666;2023-04-03T21:49:23;8.90;;;4.10;;
76733;SDS011;65660;53.288;14.666;2023-04-03T21:54:24;7.47;;;4.37;;
76733;SDS011;65660;53.288;14.666;2023-04-03T21:59:25;5.33;;;4.13;;
76733;SDS011;65660;53.288;14.666;2023-04-03T22:04:26;8.37;;;4.07;;
76733;SDS011;65660;53.288;14.666;2023-04-03T22:09:27;6.60;;;3.70;;
76733;SDS011;65660;53.288;14.666;2023-04-03T22:14:28;7.50;;;4.10;;
76733;SDS011;65660;53.288;14.666;2023-04-03T22:19:29;8.10;;;4.00;;
76733;SDS011;65660;53.288;14.666;2023-04-03T22:24:29;5.80;;;4.07;;
76733;SDS011;65660;53.288;14.666;2023-04-03T22:29:30;5.57;;;3.73;;
76733;SDS011;65660;53.288;14.666;2023-04-03T22:34:31;5.80;;;3.80;;
76733;SDS011;65660;53.288;14.666;2023-04-03T22:39:32;7.60;;;3.80;;
76733;SDS011;65660;53.288;14.666;2023-04-03T22:44:32;6.27;;;3.50;;
76733;SDS011;65660;53.288;14.666;2023-04-03T22:49:33;7.33;;;4.23;;
76733;SDS011;65660;53.288;14.666;2023-04-03T22:54:34;6.40;;;4.13;;
76733;SDS011;65660;53.288;14.666;2023-04-03T22:59:34;6.63;;;3.90;;
76733;SDS011;65660;53.288;14.666;2023-04-03T23:04:35;7.80;;;3.87;;
76733;SDS011;65660;53.288;14.666;2023-04-03T23:09:36;7.20;;;4.07;;
76733;SDS011;65660;53.288;14.666;2023-04-03T23:14:37;6.60;;;3.90;;
76733;SDS011;65660;53.288;14.666;2023-04-03T23:19:38;7.10;;;3.73;;
76733;SDS011;65660;53.288;14.666;2023-04-03T23:24:38;6.07;;;3.93;;
76733;SDS011;65660;53.288;14.666;2023-04-03T23:29:39;7.43;;;4.23;;
76733;SDS011;65660;53.288;14.666;2023-04-03T23:34:40;6.60;;;3.83;;
76733;SDS011;65660;53.288;14.666;2023-04-03T23:39:40;6.90;;;3.90;;
76733;SDS011;65660;53.288;14.666;2023-04-03T23:44:41;5.47;;;3.90;;
76733;SDS011;65660;53.288;14.666;2023-04-03T23:49:42;6.60;;;4.50;;
76733;SDS011;65660;53.288;14.666;2023-04-03T23:54:43;6.37;;;4.30;;
76733;SDS011;65660;53.288;14.666;2023-04-03T23:59:44;7.53;;;4.20;;
